Time;durP1;ratioP1;P1;durP2;ratioP2;P2;SDS_P1;SDS_P2;PMS_P1;PMS_P2;Temp;Humidity;BMP_temperature;BMP_pressure;BME280_temperature;BME280_humidity;BME280_pressure;Samples;Min_cycle;Max_cycle;Signal;HPM_P1;HPM_P2
2021/05/05 00:01:55;;;;;;;3.67;2.10;;;;;;;8.44;64.57;99990.34;4934570;29;20495;-52
2021/05/05 00:04:23;;;;;;;2.70;1.80;;;;;;;8.42;64.93;99978.94;4934601;29;20081;-52
2021/05/05 00:06:51;;;;;;;3.63;1.92;;;;;;;8.45;65.47;99981.09;4927034;29;20094;-51
2021/05/05 00:09:18;;;;;;;3.53;1.85;;;;;;;8.42;65.63;99989.81;4933178;29;20040;-50
2021/05/05 00:11:45;;;;;;;4.95;1.90;;;;;;;8.41;64.81;99996.31;4934583;29;20044;-49
2021/05/05 00:14:15;;;;;;;6.00;2.15;;;;;;;8.38;65.12;99991.41;4934737;29;20173;-49
2021/05/05 00:16:42;;;;;;;3.35;2.20;;;;;;;8.39;64.89;99992.22;4932954;29;20040;-51
2021/05/05 00:19:09;;;;;;;3.67;2.20;;;;;;;8.39;65.41;99992.22;4934400;29;20107;-51
2021/05/05 00:21:36;;;;;;;5.38;2.22;;;;;;;8.38;65.69;99996.84;4934771;29;20120;-52
2021/05/05 00:24:04;;;;;;;3.60;1.98;;;;;;;8.39;65.28;100003.88;4934516;29;20091;-53
2021/05/05 00:26:32;;;;;;;3.40;1.73;;;;;;;8.37;65.33;99995.22;4934400;29;20566;-51
2021/05/05 00:29:05;;;;;;;3.65;2.03;;;;;;;8.36;65.65;100001.72;4934299;29;20048;-49
2021/05/05 00:31:33;;;;;;;6.85;2.33;;;;;;;8.36;65.41;100004.44;4934155;29;20558;-50
2021/05/05 00:34:07;;;;;;;5.32;2.05;;;;;;;8.30;66.42;100006.34;4933239;29;20422;-50
2021/05/05 00:36:34;;;;;;;5.40;2.33;;;;;;;8.32;66.49;100009.59;4934708;29;20048;-50
2021/05/05 00:39:04;;;;;;;4.22;1.88;;;;;;;8.32;66.08;100001.47;4934447;29;20047;-52
2021/05/05 00:41:31;;;;;;;7.75;2.28;;;;;;;8.32;65.78;100003.34;4932842;29;20406;-52
2021/05/05 00:43:58;;;;;;;4.75;1.85;;;;;;;8.30;65.79;100006.34;4934486;29;20483;-51
2021/05/05 00:46:25;;;;;;;5.13;2.05;;;;;;;8.26;65.94;99999.81;4920879;29;20087;-52
2021/05/05 00:48:53;;;;;;;6.25;1.80;;;;;;;8.31;66.43;100007.16;4934315;29;20052;-51
2021/05/05 00:51:20;;;;;;;5.00;1.85;;;;;;;8.32;66.25;99997.91;4934459;29;20050;-50
2021/05/05 00:53:48;;;;;;;5.47;1.90;;;;;;;8.31;65.62;99996.28;4935643;29;20067;-52
2021/05/05 00:56:15;;;;;;;6.80;2.60;;;;;;;8.32;65.50;99992.47;4937700;29;20044;-51
2021/05/05 00:58:43;;;;;;;5.47;1.75;;;;;;;8.21;65.90;99990.88;4937939;29;20079;-51
2021/05/05 01:01:10;;;;;;;5.22;1.80;;;;;;;8.20;66.05;99994.66;4937300;29;20443;-51
2021/05/05 01:03:38;;;;;;;4.10;1.95;;;;;;;8.19;66.90;99991.16;4937774;29;20067;-52
2021/05/05 01:06:06;;;;;;;6.05;1.90;;;;;;;8.17;66.62;99987.88;4937779;29;20064;-52
2021/05/05 01:08:34;;;;;;;5.65;2.30;;;;;;;8.19;66.32;99993.06;4920552;29;20114;-52
2021/05/05 01:11:01;;;;;;;5.72;2.20;;;;;;;8.21;66.58;99985.47;4937306;29;20083;-52
2021/05/05 01:13:31;;;;;;;9.60;2.30;;;;;;;8.21;66.31;99988.97;4937098;29;20048;-51
2021/05/05 01:15:58;;;;;;;5.03;1.70;;;;;;;8.22;66.77;99982.44;4937246;29;20031;-52
2021/05/05 01:18:28;;;;;;;7.72;2.15;;;;;;;8.21;66.45;99983.56;4937118;29;20047;-51
2021/05/05 01:20:59;;;;;;;4.75;1.73;;;;;;;8.19;66.86;99979.50;4936435;29;20455;-50
2021/05/05 01:23:28;;;;;;;5.22;1.90;;;;;;;8.15;67.11;99975.69;4935827;29;20048;-50
2021/05/05 01:25:55;;;;;;;5.45;1.98;;;;;;;8.16;65.94;99977.31;4936388;29;20051;-52
2021/05/05 01:28:24;;;;;;;3.28;1.90;;;;;;;8.15;66.67;99975.69;4936707;29;20063;-52
2021/05/05 01:30:52;;;;;;;4.13;1.73;;;;;;;8.14;66.59;99974.06;4937453;29;20071;-49
2021/05/05 01:33:19;;;;;;;6.30;2.03;;;;;;;8.01;67.12;99975.41;4937060;29;20043;-50
2021/05/05 01:35:49;;;;;;;6.32;2.25;;;;;;;8.01;66.35;99980.84;4920134;29;20056;-49
2021/05/05 01:38:17;;;;;;;6.28;1.75;;;;;;;7.98;66.21;99982.19;4936968;29;20051;-52
2021/05/05 01:40:46;;;;;;;5.70;2.15;;;;;;;8.00;66.20;99974.59;4935270;29;20051;-51
2021/05/05 01:43:13;;;;;;;6.32;1.85;;;;;;;7.92;66.75;99968.94;4936663;29;20047;-53
2021/05/05 01:45:41;;;;;;;6.35;2.70;;;;;;;7.95;66.81;99977.31;4936392;29;20047;-55
2021/05/05 01:48:10;;;;;;;5.78;2.10;;;;;;;7.98;66.79;99973.25;4936583;29;20442;-51
2021/05/05 01:50:39;;;;;;;5.22;2.08;;;;;;;7.99;66.03;99977.59;4936715;29;20048;-51
2021/05/05 01:53:08;;;;;;;6.55;2.22;;;;;;;7.90;66.44;99974.63;4936522;29;20044;-51
2021/05/05 01:55:37;;;;;;;4.68;2.00;;;;;;;7.87;66.49;99973.25;4936405;29;20059;-53
2021/05/05 01:58:07;;;;;;;3.75;1.77;;;;;;;7.88;66.42;99974.88;4950609;29;20467;-54
2021/05/05 02:00:37;;;;;;;6.13;2.38;;;;;;;7.92;67.03;99975.16;4951619;29;20047;-54
2021/05/05 02:03:06;;;;;;;4.97;2.00;;;;;;;7.90;66.70;99970.00;4936599;29;20059;-52
2021/05/05 02:05:39;;;;;;;6.60;2.10;;;;;;;7.91;67.22;99962.66;4950373;29;20103;-54
2021/05/05 02:08:16;;;;;;;6.05;2.00;;;;;;;7.92;66.84;99967.03;4936419;29;20055;-53
2021/05/05 02:10:46;;;;;;;6.55;1.90;;;;;;;7.94;66.66;99964.84;4951125;29;20047;-52
2021/05/05 02:13:14;;;;;;;8.32;2.53;;;;;;;7.94;67.18;99964.84;4934505;29;20459;-54
2021/05/05 02:15:42;;;;;;;3.25;1.83;;;;;;;7.93;66.66;99963.22;4936206;29;20043;-53
2021/05/05 02:18:12;;;;;;;11.43;2.30;;;;;;;7.92;66.68;99961.59;4936362;29;20048;-53
2021/05/05 02:20:42;;;;;;;5.82;2.20;;;;;;;7.93;67.17;99963.22;4935758;29;20091;-52
2021/05/05 02:23:11;;;;;;;3.63;1.70;;;;;;;7.95;66.74;99963.75;4935234;29;20044;-52
2021/05/05 02:25:39;;;;;;;4.57;1.80;;;;;;;7.86;67.81;99960.78;4935726;29;20051;-51
2021/05/05 02:28:09;;;;;;;3.53;1.73;;;;;;;7.83;67.42;99965.94;4935532;29;20419;-52
2021/05/05 02:30:58;;;;;;;3.72;1.52;;;;;;;7.86;66.92;99968.09;4895815;29;20053;-50
2021/05/05 02:33:27;;;;;;;5.32;2.10;;;;;;;7.85;67.44;99966.47;4895672;29;20084;-52
2021/05/05 02:35:55;;;;;;;4.75;2.20;;;;;;;7.84;67.64;99981.09;4895947;29;20048;-52
2021/05/05 02:38:22;;;;;;;4.93;1.90;;;;;;;7.80;67.87;99980.03;4895833;29;20083;-51
2021/05/05 02:40:49;;;;;;;6.00;2.10;;;;;;;7.76;68.15;99973.53;4895408;29;20040;-52
2021/05/05 02:43:19;;;;;;;8.10;1.67;;;;;;;7.81;67.76;99978.94;4880116;29;20060;-51
2021/05/05 02:45:47;;;;;;;5.82;2.20;;;;;;;7.81;67.66;99982.47;4879825;29;20055;-50
2021/05/05 02:48:15;;;;;;;5.43;1.88;;;;;;;7.80;67.07;99977.31;4880089;29;20558;-51
2021/05/05 02:50:42;;;;;;;6.45;2.15;;;;;;;7.80;67.85;99974.63;4895541;29;20096;-50
2021/05/05 02:53:10;;;;;;;5.00;1.95;;;;;;;7.80;67.32;99977.31;4895713;29;20551;-52
2021/05/05 02:55:37;;;;;;;4.88;1.80;;;;;;;7.80;67.47;99977.31;4894891;29;20059;-52
2021/05/05 02:58:04;;;;;;;7.28;1.85;;;;;;;7.78;67.55;99982.19;4895552;29;20056;-51
2021/05/05 03:00:31;;;;;;;5.15;1.80;;;;;;;7.81;67.25;99987.06;4895403;29;20092;-52
2021/05/05 03:02:59;;;;;;;4.25;1.60;;;;;;;7.74;67.91;99983.81;4895309;29;20047;-50
2021/05/05 03:05:26;;;;;;;6.88;2.20;;;;;;;7.74;68.00;99987.34;4895177;29;20052;-54
2021/05/05 03:07:53;;;;;;;4.07;1.80;;;;;;;7.76;67.05;99978.94;4907615;29;20066;-50
2021/05/05 03:10:20;;;;;;;5.07;2.28;;;;;;;7.72;67.80;99975.13;4934801;29;20103;-52
2021/05/05 03:12:47;;;;;;;4.47;1.85;;;;;;;7.68;67.98;99978.41;4934996;29;20407;-52
2021/05/05 03:15:14;;;;;;;6.15;2.00;;;;;;;7.65;67.52;99986.25;4934963;29;20052;-51
2021/05/05 03:17:42;;;;;;;6.85;1.88;;;;;;;7.64;67.76;99987.34;4935568;29;20076;-48
2021/05/05 03:20:12;;;;;;;4.50;2.10;;;;;;;7.64;68.23;99996.28;4934909;29;20066;-53
2021/05/05 03:22:39;;;;;;;3.42;2.15;;;;;;;7.68;67.99;99993.84;4934269;29;20054;-52
2021/05/05 03:25:08;;;;;;;4.68;2.03;;;;;;;7.61;68.71;99996.00;4934781;29;20047;-51
2021/05/05 03:27:36;;;;;;;5.55;2.40;;;;;;;7.61;67.86;99991.41;4934852;29;20458;-52
2021/05/05 03:30:06;;;;;;;4.78;2.10;;;;;;;7.61;68.42;99999.53;4935062;29;20507;-53
2021/05/05 03:32:35;;;;;;;4.28;1.85;;;;;;;7.60;67.96;99999.78;4935379;29;20514;-52
2021/05/05 03:35:03;;;;;;;14.45;2.17;;;;;;;7.60;68.17;100003.34;4935254;29;20043;-53
2021/05/05 03:37:31;;;;;;;4.82;2.10;;;;;;;7.59;68.37;100001.69;4934786;29;20039;-50
2021/05/05 03:39:58;;;;;;;5.15;2.20;;;;;;;7.61;67.81;99998.72;4934558;29;20062;-51
2021/05/05 03:42:26;;;;;;;6.72;2.50;;;;;;;7.60;68.79;100002.50;4934903;29;20047;-51
2021/05/05 03:44:53;;;;;;;7.93;2.50;;;;;;;7.58;68.03;99994.66;4935008;29;20040;-52
2021/05/05 03:47:20;;;;;;;4.07;2.25;;;;;;;7.59;68.19;99995.47;4935015;29;20039;-53
2021/05/05 03:49:48;;;;;;;4.30;2.10;;;;;;;7.62;68.26;99994.91;4934887;29;20506;-54
2021/05/05 03:52:15;;;;;;;4.22;2.38;;;;;;;7.63;67.80;100002.78;4934955;29;20075;-51
2021/05/05 03:54:42;;;;;;;3.95;2.00;;;;;;;7.64;68.44;100007.13;4934527;29;20562;-52
2021/05/05 03:57:10;;;;;;;5.57;2.20;;;;;;;7.66;68.06;100021.22;4934850;29;20051;-52
2021/05/05 03:59:37;;;;;;;8.45;2.70;;;;;;;7.58;67.51;100010.09;4934473;29;20058;-55
2021/05/05 04:02:05;;;;;;;7.05;2.33;;;;;;;7.54;68.17;100014.44;4934730;29;20052;-52
2021/05/05 04:04:32;;;;;;;5.00;2.42;;;;;;;7.44;68.23;100016.03;4934663;29;20036;-50
2021/05/05 04:06:59;;;;;;;4.63;2.17;;;;;;;7.39;68.78;100018.72;4935421;29;20051;-52
2021/05/05 04:09:26;;;;;;;5.75;2.47;;;;;;;7.37;68.88;100017.38;4934426;29;20529;-54
2021/05/05 04:11:54;;;;;;;4.72;2.10;;;;;;;7.38;69.30;100024.41;4934759;29;20487;-52
2021/05/05 04:14:21;;;;;;;6.70;2.65;;;;;;;7.37;68.96;100022.78;4933597;29;20059;-54
2021/05/05 04:17:06;;;;;;;7.63;2.65;;;;;;;7.34;68.83;100018.72;4935702;29;20067;-52
2021/05/05 04:19:56;;;;;;;4.60;2.25;;;;;;;7.39;69.29;100020.63;4938291;29;20043;-54
2021/05/05 04:22:41;;;;;;;4.65;2.03;;;;;;;7.36;69.15;100024.69;4934230;29;20039;-56
2021/05/05 04:25:26;;;;;;;8.23;2.45;;;;;;;7.32;68.83;100030.91;4934633;29;20063;-53
2021/05/05 04:27:53;;;;;;;7.90;2.50;;;;;;;7.32;69.40;100030.91;4936531;29;20090;-53
2021/05/05 04:30:21;;;;;;;7.00;2.22;;;;;;;7.30;68.80;100028.44;4938379;29;20103;-52
2021/05/05 04:32:50;;;;;;;7.88;2.50;;;;;;;7.24;68.18;100034.94;4953029;29;20052;-55
2021/05/05 04:35:19;;;;;;;5.68;2.08;;;;;;;7.20;68.25;100048.19;4938405;29;20044;-53
2021/05/05 04:37:47;;;;;;;7.70;2.22;;;;;;;7.16;68.58;100038.94;4936427;29;20058;-51
2021/05/05 04:40:14;;;;;;;6.88;2.60;;;;;;;7.14;68.67;100053.84;4938723;29;20044;-56
2021/05/05 04:42:41;;;;;;;8.68;2.28;;;;;;;7.01;68.33;100055.16;4939483;29;20487;-56
2021/05/05 04:45:09;;;;;;;4.63;1.92;;;;;;;6.96;68.48;100057.84;4939122;29;20139;-54
2021/05/05 04:47:38;;;;;;;6.43;2.08;;;;;;;6.95;68.93;100050.78;4939345;29;20450;-54
2021/05/05 04:50:06;;;;;;;7.05;2.42;;;;;;;6.97;69.19;100064.88;4938216;29;20048;-51
2021/05/05 04:52:35;;;;;;;4.05;1.75;;;;;;;6.94;68.69;100062.69;4937633;29;20087;-52
2021/05/05 04:55:03;;;;;;;7.47;2.08;;;;;;;6.93;68.75;100064.59;4938222;29;20039;-52
2021/05/05 04:57:30;;;;;;;6.63;2.20;;;;;;;6.95;68.76;100072.44;4937464;29;20095;-53
2021/05/05 04:59:57;;;;;;;4.15;1.70;;;;;;;6.98;68.87;100070.03;4937812;29;20153;-51
2021/05/05 05:02:24;;;;;;;6.05;2.10;;;;;;;7.06;68.66;100071.41;4937405;29;20099;-50
2021/05/05 05:04:51;;;;;;;6.53;2.22;;;;;;;7.04;68.56;100079.00;4936337;29;20482;-51
2021/05/05 05:07:18;;;;;;;5.13;1.70;;;;;;;7.04;67.73;100076.28;4937469;29;20129;-53
2021/05/05 05:09:46;;;;;;;5.80;1.90;;;;;;;7.05;68.78;100080.63;4937132;29;20059;-58
2021/05/05 05:12:13;;;;;;;6.18;2.15;;;;;;;7.05;68.18;100077.94;4937604;29;20117;-52
2021/05/05 05:14:40;;;;;;;4.95;1.77;;;;;;;7.06;67.95;100082.25;4937111;29;20039;-52
2021/05/05 05:17:08;;;;;;;4.65;1.88;;;;;;;7.04;68.61;100077.09;4937396;29;20048;-51
2021/05/05 05:19:35;;;;;;;6.15;1.98;;;;;;;7.08;68.49;100080.09;4937234;29;20055;-52
2021/05/05 05:22:02;;;;;;;7.95;1.95;;;;;;;7.07;68.79;100081.19;4937512;29;20091;-52
2021/05/05 05:24:29;;;;;;;4.45;1.52;;;;;;;7.04;69.07;100092.53;4937315;29;20048;-49
2021/05/05 05:26:57;;;;;;;5.45;2.10;;;;;;;7.06;68.76;100095.78;4937186;29;20066;-50
2021/05/05 05:29:24;;;;;;;4.13;1.77;;;;;;;7.12;68.67;100099.34;4936758;29;20392;-51
2021/05/05 05:31:51;;;;;;;2.55;1.63;;;;;;;7.08;68.34;100112.59;4936618;29;20040;-50
2021/05/05 05:34:18;;;;;;;3.22;1.67;;;;;;;7.11;68.80;100108.56;4933232;29;20055;-51
2021/05/05 05:36:45;;;;;;;5.22;2.10;;;;;;;7.04;68.75;100111.50;4936457;29;20626;-49
2021/05/05 05:39:13;;;;;;;4.78;1.75;;;;;;;6.98;68.96;100107.13;4936144;29;20114;-51
2021/05/05 05:41:40;;;;;;;2.83;1.50;;;;;;;6.96;69.16;100118.22;4936425;29;20067;-50
2021/05/05 05:44:07;;;;;;;4.85;1.90;;;;;;;6.93;68.54;100124.16;4936018;29;20087;-53
2021/05/05 05:46:38;;;;;;;7.25;2.35;;;;;;;6.91;68.63;100114.69;4936461;29;20047;-51
2021/05/05 05:49:06;;;;;;;5.13;1.80;;;;;;;6.93;68.96;100129.59;4935688;29;20139;-51
2021/05/05 05:51:34;;;;;;;2.78;1.70;;;;;;;6.92;69.10;100127.13;4935954;29;20048;-51
2021/05/05 05:54:03;;;;;;;3.50;1.27;;;;;;;6.92;68.32;100122.53;4936373;29;20043;-49
2021/05/05 05:56:30;;;;;;;4.68;1.48;;;;;;;6.88;69.34;100120.59;4935108;29;20439;-50
2021/05/05 05:58:57;;;;;;;6.57;1.80;;;;;;;6.79;68.40;100141.94;4249930;28;10000610;-50
2021/05/05 06:01:27;;;;;;;2.30;1.10;;;;;;;6.75;68.72;100138.91;4934261;29;20066;-52
2021/05/05 06:03:54;;;;;;;3.42;1.42;;;;;;;6.79;68.31;100145.47;4933453;29;20048;-54
2021/05/05 06:06:21;;;;;;;3.72;1.60;;;;;;;6.75;67.70;100147.03;4934091;29;20083;-50
2021/05/05 06:08:48;;;;;;;4.13;1.58;;;;;;;6.72;68.32;100150.28;4934060;29;20055;-55
2021/05/05 06:11:16;;;;;;;5.50;1.67;;;;;;;6.63;68.45;100162.66;4933216;29;20047;-51
2021/05/05 06:13:43;;;;;;;5.10;1.80;;;;;;;6.66;68.57;100155.91;4935879;29;20062;-52
2021/05/05 06:16:14;;;;;;;4.30;1.65;;;;;;;6.67;68.54;100158.38;4937453;28;20055;-51
2021/05/05 06:18:41;;;;;;;3.65;1.70;;;;;;;6.76;68.70;100162.22;4933380;29;20114;-49
2021/05/05 06:21:09;;;;;;;3.20;1.80;;;;;;;6.79;67.72;100166.31;4933601;29;20689;-49
2021/05/05 06:23:36;;;;;;;5.03;2.00;;;;;;;6.76;68.59;100170.34;4933052;29;20055;-48
2021/05/05 06:26:03;;;;;;;4.47;1.83;;;;;;;6.75;68.42;100166.00;4933678;29;20392;-51
2021/05/05 06:28:30;;;;;;;3.85;1.75;;;;;;;6.82;68.05;100168.50;4933461;29;20499;-51
2021/05/05 06:30:58;;;;;;;4.88;1.80;;;;;;;6.79;68.02;100166.31;4933963;29;20043;-52
2021/05/05 06:33:29;;;;;;;5.90;2.17;;;;;;;6.90;68.87;100167.19;4932598;29;20451;-51
2021/05/05 06:35:56;;;;;;;4.00;1.67;;;;;;;6.96;68.78;100177.00;4920821;29;20384;-55
2021/05/05 06:38:23;;;;;;;5.93;2.30;;;;;;;6.91;68.97;100174.25;4933847;29;20039;-51
2021/05/05 06:40:50;;;;;;;6.72;2.00;;;;;;;6.88;68.88;100174.75;4933209;29;20047;-51
2021/05/05 06:43:18;;;;;;;7.57;2.15;;;;;;;6.89;69.44;100170.97;4933003;29;20095;-52
2021/05/05 06:45:45;;;;;;;8.77;2.30;;;;;;;6.99;69.19;100181.88;4933147;29;20095;-55
2021/05/05 06:48:17;;;;;;;5.82;2.03;;;;;;;6.97;69.03;100186.75;4932872;29;20040;-50
2021/05/05 06:50:47;;;;;;;7.22;2.10;;;;;;;6.96;69.13;100182.41;4932657;29;20091;-51
2021/05/05 06:53:14;;;;;;;4.72;1.98;;;;;;;7.03;69.14;100183.00;4933168;29;20123;-51
2021/05/05 06:55:43;;;;;;;5.80;2.25;;;;;;;7.11;68.74;100185.22;4933418;29;20085;-53
2021/05/05 06:58:11;;;;;;;5.30;2.08;;;;;;;7.11;68.51;100179.78;4932866;29;20047;-52
2021/05/05 07:00:38;;;;;;;5.82;2.35;;;;;;;7.10;68.82;100182.78;4933075;29;20577;-52
2021/05/05 07:03:05;;;;;;;6.63;2.42;;;;;;;7.13;68.72;100187.69;4932723;29;20075;-54
2021/05/05 07:05:33;;;;;;;6.82;2.70;;;;;;;7.16;68.29;100195.28;4949757;29;20043;-55
2021/05/05 07:08:00;;;;;;;7.80;2.47;;;;;;;7.20;68.75;100188.25;4934893;29;20081;-51
2021/05/05 07:10:27;;;;;;;10.00;2.65;;;;;;;7.15;68.33;100191.75;4934897;29;20047;-52
2021/05/05 07:12:54;;;;;;;6.72;2.58;;;;;;;7.11;67.77;100189.81;4935097;29;20047;-53
2021/05/05 07:15:21;;;;;;;8.50;2.90;;;;;;;7.01;66.83;100201.41;4934810;29;20036;-53
2021/05/05 07:17:49;;;;;;;7.43;3.13;;;;;;;6.99;67.44;100192.72;4934754;29;20079;-55
2021/05/05 07:20:16;;;;;;;10.77;2.50;;;;;;;7.06;67.82;100192.50;4934523;29;20078;-52
2021/05/05 07:22:43;;;;;;;5.97;2.30;;;;;;;7.10;67.95;100191.72;4935315;29;20103;-54
2021/05/05 07:25:10;;;;;;;8.02;2.53;;;;;;;7.15;68.13;100197.19;4933669;29;20047;-53
2021/05/05 07:27:38;;;;;;;9.23;2.90;;;;;;;7.25;67.94;100191.81;4934869;29;20076;-52
2021/05/05 07:30:07;;;;;;;6.10;2.45;;;;;;;7.35;67.66;100192.97;4935088;29;20054;-53
2021/05/05 07:32:34;;;;;;;6.10;2.45;;;;;;;7.45;67.87;100185.69;4934774;29;20056;-53
2021/05/05 07:35:05;;;;;;;10.32;3.03;;;;;;;7.48;68.01;100203.34;4935000;29;20051;-51
2021/05/05 07:43:34;;;;;;;10.35;2.85;;;;;;;7.59;67.91;100205.00;4934826;29;20547;-48
2021/05/05 07:50:50;;;;;;;;;;;;;;;7.49;69.24;100225.84;4935234;29;20558;-52
2021/05/05 07:53:16;;;;;;;;;;;;;;;7.43;71.15;100227.69;4934860;29;19927;-55
2021/05/05 07:55:43;;;;;;;10.20;3.42;;;;;;;7.31;70.87;100235.19;4934058;29;19922;-55
2021/05/05 07:58:11;;;;;;;8.30;3.20;;;;;;;7.24;71.98;100238.97;4934558;29;20047;-54
2021/05/05 08:00:38;;;;;;;8.05;3.05;;;;;;;7.15;71.45;100255.97;4934147;29;20122;-51
2021/05/05 08:03:06;;;;;;;13.07;3.38;;;;;;;7.08;71.67;100250.75;4936044;29;20043;-53
2021/05/05 08:05:33;;;;;;;9.38;3.45;;;;;;;7.00;71.72;100260.19;4938268;29;20095;-52
2021/05/05 08:08:00;;;;;;;12.18;3.45;;;;;;;6.95;72.01;100270.13;4938093;29;20048;-52
2021/05/05 08:10:28;;;;;;;14.38;3.85;;;;;;;6.93;72.88;100261.47;4938401;29;20130;-53
2021/05/05 08:12:55;;;;;;;13.13;4.30;;;;;;;6.96;71.04;100279.91;4938218;29;20040;-54
2021/05/05 08:15:23;;;;;;;11.88;3.70;;;;;;;6.95;70.67;100291.81;4936265;29;20443;-51
2021/05/05 08:17:50;;;;;;;12.93;3.35;;;;;;;6.91;70.98;100296.94;4937547;29;20047;-52
2021/05/05 08:20:17;;;;;;;11.90;3.17;;;;;;;6.94;71.89;100292.88;4925868;29;20047;-52
2021/05/05 08:22:45;;;;;;;9.23;3.00;;;;;;;6.89;70.57;100304.50;4937718;29;20507;-51
2021/05/05 08:25:13;;;;;;;6.72;2.50;;;;;;;6.74;68.71;100291.63;4937697;29;20051;-52
2021/05/05 08:27:40;;;;;;;6.15;2.58;;;;;;;6.71;69.63;100297.56;4952321;29;20118;-51
2021/05/05 08:30:08;;;;;;;6.18;2.40;;;;;;;6.63;69.54;100289.06;4937572;29;20047;-53
2021/05/05 08:32:35;;;;;;;6.75;2.70;;;;;;;6.56;70.17;100300.09;4937594;29;20067;-51
2021/05/05 08:35:03;;;;;;;9.05;2.75;;;;;;;6.54;71.32;100296.81;4937706;29;20138;-51
2021/05/05 08:37:30;;;;;;;7.20;3.00;;;;;;;6.55;71.39;100301.16;4937437;29;20047;-52
2021/05/05 08:39:58;;;;;;;6.65;2.38;;;;;;;6.67;71.27;100284.78;4937751;29;20103;-52
2021/05/05 08:42:25;;;;;;;7.10;2.40;;;;;;;6.78;71.69;100290.06;4937425;29;20043;-51
2021/05/05 08:44:53;;;;;;;6.03;2.35;;;;;;;6.91;70.71;100288.81;4936934;29;20474;-51
2021/05/05 08:47:21;;;;;;;7.50;2.50;;;;;;;7.01;69.95;100299.72;4937636;29;20052;-51
2021/05/05 08:49:49;;;;;;;9.27;3.00;;;;;;;7.06;69.84;100304.38;4937649;29;20061;-52
2021/05/05 08:52:16;;;;;;;11.13;3.90;;;;;;;7.12;70.25;100295.22;4937341;29;20102;-51
2021/05/05 08:54:46;;;;;;;10.65;3.45;;;;;;;7.28;70.69;100301.56;4937652;29;20054;-52
2021/05/05 08:57:15;;;;;;;10.57;3.25;;;;;;;7.34;69.08;100292.41;4937455;29;20079;-51
2021/05/05 08:59:43;;;;;;;10.50;3.90;;;;;;;7.35;69.13;100304.06;4924427;29;20051;-52
2021/05/05 09:02:10;;;;;;;12.27;3.55;;;;;;;7.32;68.73;100310.81;4936497;29;20051;-54
2021/05/05 09:04:39;;;;;;;14.27;4.18;;;;;;;7.38;69.32;100311.69;4936972;29;20047;-53
2021/05/05 09:07:06;;;;;;;13.35;3.65;;;;;;;7.47;69.15;100318.25;4936476;29;20066;-53
2021/05/05 09:09:38;;;;;;;12.40;3.67;;;;;;;7.50;69.78;100323.16;4936772;29;20032;-53
2021/05/05 09:12:22;;;;;;;11.52;3.70;;;;;;;7.48;70.42;100319.91;4937272;29;20504;-54
2021/05/05 09:14:57;;;;;;;14.98;4.15;;;;;;;7.41;71.56;100319.31;4935726;29;20123;-54
2021/05/05 09:17:27;;;;;;;10.10;3.00;;;;;;;7.18;71.08;100331.31;4937517;29;20542;-54
2021/05/05 09:20:05;;;;;;;7.55;2.70;;;;;;;7.00;71.13;100330.59;4936486;29;20047;-51
2021/05/05 09:22:41;;;;;;;6.93;2.45;;;;;;;6.95;71.33;100332.44;4937206;29;20078;-54
2021/05/05 09:25:11;;;;;;;7.80;2.70;;;;;;;7.00;72.08;100340.63;4937044;29;20040;-52
2021/05/05 09:27:39;;;;;;;10.07;3.08;;;;;;;7.08;71.33;100332.03;4936766;29;20103;-52
2021/05/05 09:30:22;;;;;;;10.00;3.60;;;;;;;7.23;72.06;100340.28;4936988;29;20060;-53
2021/05/05 09:32:52;;;;;;;12.05;3.20;;;;;;;7.36;68.41;100354.47;4936704;29;20044;-51
2021/05/05 09:35:29;;;;;;;17.73;4.28;;;;;;;7.47;69.63;100348.06;4936382;29;20387;-53
2021/05/05 09:38:10;;;;;;;12.57;4.13;;;;;;;7.61;68.46;100353.88;4936835;29;20040;-52
2021/05/05 09:40:56;;;;;;;11.23;3.55;;;;;;;7.72;69.09;100330.34;4935256;29;20044;-53
2021/05/05 09:43:23;;;;;;;9.57;3.33;;;;;;;7.72;66.59;100357.47;4936073;29;20048;-53
2021/05/05 09:45:51;;;;;;;12.75;3.55;;;;;;;7.68;66.23;100347.16;4936597;29;20044;-50
2021/05/05 09:48:23;;;;;;;12.48;3.42;;;;;;;7.69;66.24;100359.63;4936984;29;20039;-51
2021/05/05 09:50:59;;;;;;;15.32;3.97;;;;;;;7.77;66.64;100362.91;4936230;29;20051;-50
2021/05/05 09:53:28;;;;;;;16.70;4.32;;;;;;;7.80;66.94;100365.13;4936465;29;20050;-49
2021/05/05 09:55:58;;;;;;;14.30;3.97;;;;;;;7.80;66.98;100371.38;4935822;29;20120;-51
2021/05/05 09:58:29;;;;;;;9.60;3.22;;;;;;;7.82;66.61;100365.69;4936494;29;20071;-49
2021/05/05 10:01:06;;;;;;;15.50;4.25;;;;;;;7.87;67.49;100390.13;4936901;29;20071;-52
2021/05/05 10:03:37;;;;;;;;;;;;;;;7.88;66.08;100416.16;4936729;29;20412;-53
2021/05/05 10:06:32;;;;;;;12.93;3.30;;;;;;;7.48;64.60;100450.03;4936470;29;19970;-49
2021/05/05 10:09:08;;;;;;;10.25;3.13;;;;;;;6.88;67.57;100459.09;4936002;29;20051;-49
2021/05/05 10:11:43;;;;;;;10.90;3.08;;;;;;;6.67;69.16;100456.16;4936109;29;20046;-53
2021/05/05 10:14:12;;;;;;;10.47;3.07;;;;;;;6.68;70.33;100444.22;4936134;29;20035;-50
2021/05/05 10:16:46;;;;;;;13.55;5.05;;;;;;;6.74;69.32;100455.97;4936186;29;20840;-48
2021/05/05 10:19:18;;;;;;;13.30;6.25;;;;;;;6.81;69.19;100453.88;4935550;29;20043;-51
2021/05/05 10:22:15;;;;;;;14.55;5.65;;;;;;;6.90;68.73;100454.25;4935612;29;20051;-50
2021/05/05 10:24:48;;;;;;;9.98;3.83;;;;;;;7.01;68.96;100442.47;4879368;29;20436;-51
2021/05/05 10:27:15;;;;;;;12.57;4.30;;;;;;;7.12;68.90;100452.34;4879703;29;20055;-51
2021/05/05 10:29:44;;;;;;;14.32;6.40;;;;;;;7.28;69.72;100455.22;4880389;29;20067;-51
2021/05/05 10:32:13;;;;;;;8.82;3.45;;;;;;;7.41;69.37;100450.22;4895551;29;20045;-50
2021/05/05 10:34:44;;;;;;;7.50;2.67;;;;;;;7.51;69.65;100457.63;4864865;29;20161;-50
2021/05/05 10:37:12;;;;;;;13.18;5.30;;;;;;;7.62;69.82;100456.63;4880311;29;20061;-50
2021/05/05 10:39:42;;;;;;;11.70;5.20;;;;;;;7.75;70.54;100451.88;4895240;29;20104;-50
2021/05/05 10:42:21;;;;;;;16.80;7.05;;;;;;;7.99;70.34;100453.16;4216939;29;9999922;-49
2021/05/05 10:44:49;;;;;;;10.48;3.28;;;;;;;8.02;68.27;100482.47;4892771;29;20076;-52
2021/05/05 10:47:34;;;;;;;12.32;4.43;;;;;;;7.98;67.67;100465.06;4892535;29;20576;-51
2021/05/05 10:50:05;;;;;;;15.43;5.30;;;;;;;8.08;67.20;100470.59;4891754;29;20786;-51
2021/05/05 10:52:35;;;;;;;12.48;3.58;;;;;;;8.08;67.07;100481.44;4892339;29;20184;-49
2021/05/05 10:55:04;;;;;;;7.43;2.85;;;;;;;8.08;67.53;100473.31;4892216;29;20137;-52
2021/05/05 10:57:41;;;;;;;9.05;3.08;;;;;;;8.17;66.88;100472.81;4892271;29;20048;-50
2021/05/05 11:00:14;;;;;;;10.90;3.72;;;;;;;8.22;66.30;100481.00;4882205;29;20055;-51
2021/05/05 11:02:46;;;;;;;13.15;4.15;;;;;;;8.22;63.94;100481.00;4933031;29;20051;-49
2021/05/05 11:05:17;;;;;;;9.88;2.83;;;;;;;8.29;62.83;100482.38;4932506;29;20044;-50
2021/05/05 11:07:57;;;;;;;10.50;3.67;;;;;;;8.31;63.85;100490.28;4932844;29;20047;-51
2021/05/05 11:10:33;;;;;;;11.30;3.78;;;;;;;8.25;64.40;100496.75;4932599;29;20048;-53
2021/05/05 11:13:20;;;;;;;12.93;3.67;;;;;;;8.31;62.74;100503.84;4932457;29;20043;-50
2021/05/05 11:15:47;;;;;;;12.48;3.20;;;;;;;8.34;63.28;100506.03;4932620;29;20056;-50
2021/05/05 11:21:06;;;;;;;12.90;4.18;;;;;;;8.43;63.86;100518.09;4932333;29;20067;-48
2021/05/05 11:23:33;;;;;;;10.23;3.00;;;;;;;8.33;63.23;100537.00;4931965;29;20063;-53
2021/05/05 11:26:25;;;;;;;10.10;3.50;;;;;;;8.45;64.35;100539.56;4933314;29;20562;-53
2021/05/05 11:29:00;;;;;;;12.95;4.03;;;;;;;8.65;66.84;100536.16;4914748;29;20059;-51
2021/05/05 11:31:49;;;;;;;9.63;3.05;;;;;;;8.76;61.29;100543.28;4933155;29;20048;-51
2021/05/05 11:34:19;;;;;;;9.40;2.95;;;;;;;8.64;62.21;100542.66;4919627;28;20063;-52
2021/05/05 11:37:08;;;;;;;10.45;3.50;;;;;;;8.55;63.48;100560.53;4956853;28;20669;-53
2021/05/05 11:39:38;;;;;;;10.27;2.80;;;;;;;8.47;63.26;100587.09;4935704;29;20067;-55
2021/05/05 11:42:15;;;;;;;8.98;2.95;;;;;;;8.33;63.97;100575.81;4952180;28;20051;-52
2021/05/05 11:45:06;;;;;;;12.55;3.47;;;;;;;8.28;63.63;100578.47;4952042;28;20054;-56
2021/05/05 11:47:36;;;;;;;8.48;2.65;;;;;;;8.20;62.19;100575.41;4951869;28;20439;-54
2021/05/05 11:50:09;;;;;;;11.98;2.83;;;;;;;8.19;64.22;100579.22;4966278;28;20051;-51
2021/05/05 11:52:42;;;;;;;8.30;2.30;;;;;;;8.20;63.09;100576.25;4951028;28;20130;-53
2021/05/05 11:55:11;;;;;;;9.00;2.78;;;;;;;8.22;62.54;100584.13;4948698;28;20110;-56
2021/05/05 11:57:45;;;;;;;7.00;2.28;;;;;;;8.23;63.96;100615.63;4911528;28;20039;-53
2021/05/05 12:00:14;;;;;;;8.30;2.78;;;;;;;8.06;64.05;100646.41;4940557;29;20043;-51